sensor_id;sensor_type;location;lat;lon;timestamp;temperature;humidity
12384;DHT22;6256;63.808;20.336;2023-03-15T00:00:48;-6.50;99.90
12384;DHT22;6256;63.808;20.336;2023-03-15T00:03:14;-6.60;99.90
12384;DHT22;6256;63.808;20.336;2023-03-15T00:05:45;-6.60;99.90
12384;DHT22;6256;63.808;20.336;2023-03-15T00:08:11;-6.70;99.90
12384;DHT22;6256;63.808;20.336;2023-03-15T00:10:41;-6.70;99.90
12384;DHT22;6256;63.808;20.336;2023-03-15T00:13:08;-6.80;99.90
12384;DHT22;6256;63.808;20.336;2023-03-15T00:15:35;-6.80;99.90
12384;DHT22;6256;63.808;20.336;2023-03-15T00:18:01;-6.90;99.90
12384;DHT22;6256;63.808;20.336;2023-03-15T00:20:28;-6.90;99.90
12384;DHT22;6256;63.808;20.336;2023-03-15T00:22:54;-7.00;99.90
12384;DHT22;6256;63.808;20.336;2023-03-15T00:25:20;-7.00;99.90
12384;DHT22;6256;63.808;20.336;2023-03-15T00:27:45;-7.10;99.90
12384;DHT22;6256;63.808;20.336;2023-03-15T00:30:11;-7.10;99.90
12384;DHT22;6256;63.808;20.336;2023-03-15T00:32:37;-7.10;99.90
12384;DHT22;6256;63.808;20.336;2023-03-15T00:35:03;-7.20;99.90
12384;DHT22;6256;63.808;20.336;2023-03-15T00:37:30;-7.30;99.90
12384;DHT22;6256;63.808;20.336;2023-03-15T00:39:55;-7.30;99.90
12384;DHT22;6256;63.808;20.336;2023-03-15T00:42:21;-7.40;99.90
12384;DHT22;6256;63.808;20.336;2023-03-15T00:44:52;-7.50;99.90
12384;DHT22;6256;63.808;20.336;2023-03-15T00:47:19;-7.50;99.90
12384;DHT22;6256;63.808;20.336;2023-03-15T00:49:45;-7.60;99.90
12384;DHT22;6256;63.808;20.336;2023-03-15T00:52:11;-7.70;99.90
12384;DHT22;6256;63.808;20.336;2023-03-15T00:54:37;-7.70;99.90
12384;DHT22;6256;63.808;20.336;2023-03-15T00:57:02;-7.70;99.90
12384;DHT22;6256;63.808;20.336;2023-03-15T00:59:30;-7.80;99.90
12384;DHT22;6256;63.808;20.336;2023-03-15T01:02:04;-7.80;99.90
12384;DHT22;6256;63.808;20.336;2023-03-15T01:04:30;-7.90;99.90
12384;DHT22;6256;63.808;20.336;2023-03-15T01:06:56;-8.00;99.90
12384;DHT22;6256;63.808;20.336;2023-03-15T01:09:22;-8.00;99.90
12384;DHT22;6256;63.808;20.336;2023-03-15T01:11:49;-8.10;99.90
12384;DHT22;6256;63.808;20.336;2023-03-15T01:14:14;-8.20;99.90
12384;DHT22;6256;63.808;20.336;2023-03-15T01:16:40;-8.20;99.90
12384;DHT22;6256;63.808;20.336;2023-03-15T01:19:06;-8.20;99.90
12384;DHT22;6256;63.808;20.336;2023-03-15T01:21:32;-8.30;99.90
12384;DHT22;6256;63.808;20.336;2023-03-15T01:23:58;-8.40;99.90
12384;DHT22;6256;63.808;20.336;2023-03-15T01:26:23;-8.40;99.90
12384;DHT22;6256;63.808;20.336;2023-03-15T01:28:49;-8.40;99.90
12384;DHT22;6256;63.808;20.336;2023-03-15T01:31:21;-8.50;99.90
12384;DHT22;6256;63.808;20.336;2023-03-15T01:33:47;-8.50;99.90
12384;DHT22;6256;63.808;20.336;2023-03-15T01:36:13;-8.60;99.90
12384;DHT22;6256;63.808;20.336;2023-03-15T01:38:38;-8.60;99.90
12384;DHT22;6256;63.808;20.336;2023-03-15T01:41:04;-8.60;99.90
12384;DHT22;6256;63.808;20.336;2023-03-15T01:43:31;-8.70;99.90
12384;DHT22;6256;63.808;20.336;2023-03-15T01:54:35;-8.80;99.90
12384;DHT22;6256;63.808;20.336;2023-03-15T01:57:05;-8.90;99.90
12384;DHT22;6256;63.808;20.336;2023-03-15T01:59:37;-8.90;99.90
12384;DHT22;6256;63.808;20.336;2023-03-15T02:02:04;-8.90;99.90
12384;DHT22;6256;63.808;20.336;2023-03-15T02:04:35;-9.00;99.90
12384;DHT22;6256;63.808;20.336;2023-03-15T02:07:04;-9.00;99.90
12384;DHT22;6256;63.808;20.336;2023-03-15T02:10:04;-9.10;99.90
12384;DHT22;6256;63.808;20.336;2023-03-15T02:12:32;-9.20;99.90
12384;DHT22;6256;63.808;20.336;2023-03-15T02:15:00;-9.20;99.90
12384;DHT22;6256;63.808;20.336;2023-03-15T02:17:36;-9.30;99.90
12384;DHT22;6256;63.808;20.336;2023-03-15T02:23:08;-9.40;99.90
12384;DHT22;6256;63.808;20.336;2023-03-15T02:28:20;-9.50;99.90
12384;DHT22;6256;63.808;20.336;2023-03-15T02:30:47;-9.60;99.90
12384;DHT22;6256;63.808;20.336;2023-03-15T02:33:26;-9.60;99.90
12384;DHT22;6256;63.808;20.336;2023-03-15T02:35:53;-9.70;99.90
12384;DHT22;6256;63.808;20.336;2023-03-15T02:38:19;-9.70;99.90
12384;DHT22;6256;63.808;20.336;2023-03-15T02:40:48;-9.80;99.90
12384;DHT22;6256;63.808;20.336;2023-03-15T02:43:19;-9.80;99.90
12384;DHT22;6256;63.808;20.336;2023-03-15T02:45:47;-9.80;99.90
12384;DHT22;6256;63.808;20.336;2023-03-15T02:48:13;-9.90;99.90
12384;DHT22;6256;63.808;20.336;2023-03-15T02:50:39;-9.90;99.90
12384;DHT22;6256;63.808;20.336;2023-03-15T02:53:05;-10.00;99.90
12384;DHT22;6256;63.808;20.336;2023-03-15T02:55:31;-10.10;99.90
12384;DHT22;6256;63.808;20.336;2023-03-15T02:57:58;-10.10;99.90
12384;DHT22;6256;63.808;20.336;2023-03-15T03:00:24;-10.10;99.90
12384;DHT22;6256;63.808;20.336;2023-03-15T03:02:50;-10.20;99.90
12384;DHT22;6256;63.808;20.336;2023-03-15T03:05:16;-10.20;99.90
12384;DHT22;6256;63.808;20.336;2023-03-15T03:07:42;-10.30;99.90
12384;DHT22;6256;63.808;20.336;2023-03-15T03:10:10;-10.40;99.90
12384;DHT22;6256;63.808;20.336;2023-03-15T03:12:35;-10.40;99.90
12384;DHT22;6256;63.808;20.336;2023-03-15T03:15:01;-10.50;99.90
12384;DHT22;6256;63.808;20.336;2023-03-15T03:17:29;-10.50;99.90
12384;DHT22;6256;63.808;20.336;2023-03-15T03:19:54;-10.50;99.90
12384;DHT22;6256;63.808;20.336;2023-03-15T03:22:20;-10.60;99.90
12384;DHT22;6256;63.808;20.336;2023-03-15T03:24:49;-10.60;99.90
12384;DHT22;6256;63.808;20.336;2023-03-15T03:27:16;-10.70;99.90
12384;DHT22;6256;63.808;20.336;2023-03-15T03:29:43;-10.70;99.90
12384;DHT22;6256;63.808;20.336;2023-03-15T03:32:09;-10.80;99.90
12384;DHT22;6256;63.808;20.336;2023-03-15T03:34:35;-10.80;99.90
12384;DHT22;6256;63.808;20.336;2023-03-15T03:37:01;-10.90;99.90
12384;DHT22;6256;63.808;20.336;2023-03-15T03:39:27;-10.90;99.90
12384;DHT22;6256;63.808;20.336;2023-03-15T03:41:53;-10.90;99.90
12384;DHT22;6256;63.808;20.336;2023-03-15T03:44:19;-10.90;99.90
12384;DHT22;6256;63.808;20.336;2023-03-15T03:46:44;-10.90;99.90
12384;DHT22;6256;63.808;20.336;2023-03-15T03:49:10;-10.90;99.90
12384;DHT22;6256;63.808;20.336;2023-03-15T03:51:36;-10.90;99.90
12384;DHT22;6256;63.808;20.336;2023-03-15T03:54:02;-10.90;99.90
12384;DHT22;6256;63.808;20.336;2023-03-15T03:56:29;-11.00;99.90
12384;DHT22;6256;63.808;20.336;2023-03-15T03:58:55;-11.00;99.90
12384;DHT22;6256;63.808;20.336;2023-03-15T04:01:21;-11.00;99.90
12384;DHT22;6256;63.808;20.336;2023-03-15T04:03:47;-11.00;99.90
12384;DHT22;6256;63.808;20.336;2023-03-15T04:06:13;-11.00;99.90
12384;DHT22;6256;63.808;20.336;2023-03-15T04:08:39;-11.00;99.90
12384;DHT22;6256;63.808;20.336;2023-03-15T04:11:05;-11.00;99.90
12384;DHT22;6256;63.808;20.336;2023-03-15T04:13:31;-11.00;99.90
12384;DHT22;6256;63.808;20.336;2023-03-15T04:15:57;-11.00;99.90
12384;DHT22;6256;63.808;20.336;2023-03-15T04:18:26;-11.10;99.90
12384;DHT22;6256;63.808;20.336;2023-03-15T04:20:52;-11.20;99.90
12384;DHT22;6256;63.808;20.336;2023-03-15T04:23:19;-11.30;99.90
12384;DHT22;6256;63.808;20.336;2023-03-15T04:25:50;-11.30;99.90
12384;DHT22;6256;63.808;20.336;2023-03-15T04:28:17;-11.30;99.90
12384;DHT22;6256;63.808;20.336;2023-03-15T04:30:44;-11.40;99.90
12384;DHT22;6256;63.808;20.336;2023-03-15T04:33:12;-11.40;99.90
12384;DHT22;6256;63.808;20.336;2023-03-15T04:35:38;-11.40;99.90
12384;DHT22;6256;63.808;20.336;2023-03-15T04:38:04;-11.40;99.90
12384;DHT22;6256;63.808;20.336;2023-03-15T04:40:31;-11.40;99.90
12384;DHT22;6256;63.808;20.336;2023-03-15T04:43:00;-11.50;99.90
12384;DHT22;6256;63.808;20.336;2023-03-15T04:45:27;-11.50;99.90
12384;DHT22;6256;63.808;20.336;2023-03-15T04:47:54;-11.50;99.90
12384;DHT22;6256;63.808;20.336;2023-03-15T04:50:21;-11.60;99.90
12384;DHT22;6256;63.808;20.336;2023-03-15T04:52:47;-11.60;99.90
12384;DHT22;6256;63.808;20.336;2023-03-15T04:55:13;-11.50;99.90
12384;DHT22;6256;63.808;20.336;2023-03-15T04:57:39;-11.50;99.90
12384;DHT22;6256;63.808;20.336;2023-03-15T05:00:06;-11.40;99.90
12384;DHT22;6256;63.808;20.336;2023-03-15T05:02:33;-11.30;99.90
12384;DHT22;6256;63.808;20.336;2023-03-15T05:04:59;-11.40;99.90
12384;DHT22;6256;63.808;20.336;2023-03-15T05:07:24;-11.30;99.90
12384;DHT22;6256;63.808;20.336;2023-03-15T05:09:50;-11.10;99.90
12384;DHT22;6256;63.808;20.336;2023-03-15T05:12:16;-11.00;99.90
12384;DHT22;6256;63.808;20.336;2023-03-15T05:14:43;-11.00;99.90
12384;DHT22;6256;63.808;20.336;2023-03-15T05:17:08;-10.80;99.90
12384;DHT22;6256;63.808;20.336;2023-03-15T05:19:34;-10.70;99.90
12384;DHT22;6256;63.808;20.336;2023-03-15T05:22:01;-10.50;99.90
12384;DHT22;6256;63.808;20.336;2023-03-15T05:24:29;-10.40;99.90
12384;DHT22;6256;63.808;20.336;2023-03-15T05:26:55;-10.10;99.90
12384;DHT22;6256;63.808;20.336;2023-03-15T05:29:21;-10.00;99.90
12384;DHT22;6256;63.808;20.336;2023-03-15T05:31:48;-9.80;99.90
12384;DHT22;6256;63.808;20.336;2023-03-15T05:34:14;-9.80;99.90
12384;DHT22;6256;63.808;20.336;2023-03-15T05:36:40;-9.70;99.90
12384;DHT22;6256;63.808;20.336;2023-03-15T05:39:06;-9.50;99.90
12384;DHT22;6256;63.808;20.336;2023-03-15T05:41:35;-9.40;99.90
12384;DHT22;6256;63.808;20.336;2023-03-15T05:44:00;-9.40;99.90
12384;DHT22;6256;63.808;20.336;2023-03-15T05:46:26;-9.30;99.90
12384;DHT22;6256;63.808;20.336;2023-03-15T05:48:52;-9.20;99.90
12384;DHT22;6256;63.808;20.336;2023-03-15T05:51:18;-9.10;99.90
12384;DHT22;6256;63.808;20.336;2023-03-15T05:53:44;-9.00;99.90
12384;DHT22;6256;63.808;20.336;2023-03-15T05:56:10;-8.90;99.90
12384;DHT22;6256;63.808;20.336;2023-03-15T05:58:35;-8.80;99.90
12384;DHT22;6256;63.808;20.336;2023-03-15T06:01:02;-8.70;99.90
12384;DHT22;6256;63.808;20.336;2023-03-15T06:03:29;-8.70;99.90
12384;DHT22;6256;63.808;20.336;2023-03-15T06:05:56;-8.70;99.90
12384;DHT22;6256;63.808;20.336;2023-03-15T06:08:22;-8.50;99.90
12384;DHT22;6256;63.808;20.336;2023-03-15T06:10:48;-8.40;99.90
12384;DHT22;6256;63.808;20.336;2023-03-15T06:13:14;-8.30;99.90
12384;DHT22;6256;63.808;20.336;2023-03-15T06:15:39;-8.20;99.90
12384;DHT22;6256;63.808;20.336;2023-03-15T06:18:05;-8.00;99.90
12384;DHT22;6256;63.808;20.336;2023-03-15T06:20:31;-8.00;99.90
12384;DHT22;6256;63.808;20.336;2023-03-15T06:22:57;-8.00;99.90
12384;DHT22;6256;63.808;20.336;2023-03-15T06:25:23;-8.00;99.90
12384;DHT22;6256;63.808;20.336;2023-03-15T06:27:48;-7.80;99.90
12384;DHT22;6256;63.808;20.336;2023-03-15T06:30:14;-7.60;99.90
12384;DHT22;6256;63.808;20.336;2023-03-15T06:32:40;-7.50;99.90
12384;DHT22;6256;63.808;20.336;2023-03-15T06:35:06;-7.40;99.90
12384;DHT22;6256;63.808;20.336;2023-03-15T06:37:33;-7.50;99.90
12384;DHT22;6256;63.808;20.336;2023-03-15T06:40:06;-7.60;99.90
12384;DHT22;6256;63.808;20.336;2023-03-15T06:42:33;-7.50;99.90
12384;DHT22;6256;63.808;20.336;2023-03-15T06:44:59;-7.50;99.90
12384;DHT22;6256;63.808;20.336;2023-03-15T06:47:25;-7.30;99.90
12384;DHT22;6256;63.808;20.336;2023-03-15T06:49:51;-7.10;99.90
12384;DHT22;6256;63.808;20.336;2023-03-15T06:52:17;-6.90;99.90
12384;DHT22;6256;63.808;20.336;2023-03-15T06:54:43;-6.80;99.90
12384;DHT22;6256;63.808;20.336;2023-03-15T06:57:08;-6.80;99.90
12384;DHT22;6256;63.808;20.336;2023-03-15T06:59:34;-6.70;99.90
12384;DHT22;6256;63.808;20.336;2023-03-15T07:02:00;-6.70;99.90
12384;DHT22;6256;63.808;20.336;2023-03-15T07:04:26;-6.70;99.90
12384;DHT22;6256;63.808;20.336;2023-03-15T07:06:51;-6.60;99.90
12384;DHT22;6256;63.808;20.336;2023-03-15T07:09:17;-6.50;99.90
12384;DHT22;6256;63.808;20.336;2023-03-15T07:11:43;-6.30;99.90
12384;DHT22;6256;63.808;20.336;2023-03-15T07:14:09;-6.20;99.90
12384;DHT22;6256;63.808;20.336;2023-03-15T07:16:34;-6.10;99.90
12384;DHT22;6256;63.808;20.336;2023-03-15T07:19:01;-6.00;99.90
12384;DHT22;6256;63.808;20.336;2023-03-15T07:21:27;-5.90;99.90
12384;DHT22;6256;63.808;20.336;2023-03-15T07:23:53;-5.80;99.90
12384;DHT22;6256;63.808;20.336;2023-03-15T07:26:18;-5.60;99.90
12384;DHT22;6256;63.808;20.336;2023-03-15T07:28:44;-5.40;99.90
12384;DHT22;6256;63.808;20.336;2023-03-15T07:31:11;-5.20;99.90
12384;DHT22;6256;63.808;20.336;2023-03-15T07:33:38;-5.20;99.90
12384;DHT22;6256;63.808;20.336;2023-03-15T07:36:05;-5.10;99.90
12384;DHT22;6256;63.808;20.336;2023-03-15T07:38:31;-5.20;99.90
12384;DHT22;6256;63.808;20.336;2023-03-15T07:41:00;-5.20;99.90
12384;DHT22;6256;63.808;20.336;2023-03-15T07:43:27;-5.20;99.90
12384;DHT22;6256;63.808;20.336;2023-03-15T07:45:54;-5.10;99.90
12384;DHT22;6256;63.808;20.336;2023-03-15T07:48:20;-4.90;99.90
12384;DHT22;6256;63.808;20.336;2023-03-15T07:50:45;-4.80;99.90
12384;DHT22;6256;63.808;20.336;2023-03-15T07:53:11;-4.70;99.90
12384;DHT22;6256;63.808;20.336;2023-03-15T07:55:37;-4.70;99.90
12384;DHT22;6256;63.808;20.336;2023-03-15T07:58:03;-4.70;99.90
12384;DHT22;6256;63.808;20.336;2023-03-15T08:00:29;-4.80;99.90
12384;DHT22;6256;63.808;20.336;2023-03-15T08:02:55;-4.60;99.90
12384;DHT22;6256;63.808;20.336;2023-03-15T08:05:20;-4.60;99.90
12384;DHT22;6256;63.808;20.336;2023-03-15T08:07:47;-4.60;99.90
12384;DHT22;6256;63.808;20.336;2023-03-15T08:10:14;-4.60;99.90
12384;DHT22;6256;63.808;20.336;2023-03-15T08:12:40;-4.50;99.90
12384;DHT22;6256;63.808;20.336;2023-03-15T08:15:11;-4.20;99.90
12384;DHT22;6256;63.808;20.336;2023-03-15T08:17:37;-4.20;99.90
12384;DHT22;6256;63.808;20.336;2023-03-15T08:20:03;-4.00;99.90
12384;DHT22;6256;63.808;20.336;2023-03-15T08:22:30;-3.80;99.90
12384;DHT22;6256;63.808;20.336;2023-03-15T08:24:56;-3.60;99.90
12384;DHT22;6256;63.808;20.336;2023-03-15T08:27:24;-3.40;99.90
12384;DHT22;6256;63.808;20.336;2023-03-15T08:29:50;-3.50;99.90
12384;DHT22;6256;63.808;20.336;2023-03-15T08:32:17;-3.70;99.90
12384;DHT22;6256;63.808;20.336;2023-03-15T08:34:43;-3.60;99.90
12384;DHT22;6256;63.808;20.336;2023-03-15T08:37:10;-3.70;99.90
12384;DHT22;6256;63.808;20.336;2023-03-15T08:39:39;-3.60;99.90
12384;DHT22;6256;63.808;20.336;2023-03-15T08:42:05;-3.70;99.90
12384;DHT22;6256;63.808;20.336;2023-03-15T08:44:32;-3.70;99.90
12384;DHT22;6256;63.808;20.336;2023-03-15T08:46:57;-3.70;99.90
12384;DHT22;6256;63.808;20.336;2023-03-15T08:49:23;-3.60;99.90
12384;DHT22;6256;63.808;20.336;2023-03-15T08:51:49;-3.60;99.90
12384;DHT22;6256;63.808;20.336;2023-03-15T08:54:15;-3.50;99.90
12384;DHT22;6256;63.808;20.336;2023-03-15T08:56:41;-3.80;99.90
12384;DHT22;6256;63.808;20.336;2023-03-15T08:59:08;-3.80;99.90
12384;DHT22;6256;63.808;20.336;2023-03-15T09:01:34;-3.80;99.90
12384;DHT22;6256;63.808;20.336;2023-03-15T09:04:00;-3.70;99.90
12384;DHT22;6256;63.808;20.336;2023-03-15T09:06:27;-3.60;99.90
12384;DHT22;6256;63.808;20.336;2023-03-15T09:08:53;-3.50;99.90
12384;DHT22;6256;63.808;20.336;2023-03-15T09:11:19;-3.50;99.90
12384;DHT22;6256;63.808;20.336;2023-03-15T09:13:46;-3.30;99.90
12384;DHT22;6256;63.808;20.336;2023-03-15T09:16:11;-3.30;99.90
12384;DHT22;6256;63.808;20.336;2023-03-15T09:18:37;-3.30;99.90
12384;DHT22;6256;63.808;20.336;2023-03-15T09:21:05;-3.10;99.90
12384;DHT22;6256;63.808;20.336;2023-03-15T09:23:31;-3.00;99.90
12384;DHT22;6256;63.808;20.336;2023-03-15T09:25:57;-2.90;99.90
12384;DHT22;6256;63.808;20.336;2023-03-15T09:28:23;-2.70;99.90
12384;DHT22;6256;63.808;20.336;2023-03-15T09:30:52;-2.60;99.90
12384;DHT22;6256;63.808;20.336;2023-03-15T09:33:18;-2.50;99.90
12384;DHT22;6256;63.808;20.336;2023-03-15T09:35:50;-2.40;99.90
12384;DHT22;6256;63.808;20.336;2023-03-15T09:38:16;-2.60;99.90
12384;DHT22;6256;63.808;20.336;2023-03-15T09:40:43;-2.70;99.90
12384;DHT22;6256;63.808;20.336;2023-03-15T09:43:51;-3.00;99.90
12384;DHT22;6256;63.808;20.336;2023-03-15T09:46:28;-3.10;99.90
12384;DHT22;6256;63.808;20.336;2023-03-15T09:49:18;-3.10;99.90
12384;DHT22;6256;63.808;20.336;2023-03-15T09:56:59;-2.90;99.90
12384;DHT22;6256;63.808;20.336;2023-03-15T09:59:34;-2.90;99.90
12384;DHT22;6256;63.808;20.336;2023-03-15T10:04:41;-2.80;99.90
12384;DHT22;6256;63.808;20.336;2023-03-15T10:07:12;-2.90;99.90
12384;DHT22;6256;63.808;20.336;2023-03-15T10:09:39;-3.00;99.90
12384;DHT22;6256;63.808;20.336;2023-03-15T10:12:20;-2.90;99.90
12384;DHT22;6256;63.808;20.336;2023-03-15T10:17:47;-2.50;99.90
12384;DHT22;6256;63.808;20.336;2023-03-15T10:20:18;-2.40;99.90
12384;DHT22;6256;63.808;20.336;2023-03-15T10:25:28;-1.90;99.90
12384;DHT22;6256;63.808;20.336;2023-03-15T10:28:03;-1.90;99.90
12384;DHT22;6256;63.808;20.336;2023-03-15T10:30:31;-1.70;99.90
12384;DHT22;6256;63.808;20.336;2023-03-15T10:33:05;-1.60;99.90
12384;DHT22;6256;63.808;20.336;2023-03-15T10:35:37;-1.40;99.90
12384;DHT22;6256;63.808;20.336;2023-03-15T10:38:23;-1.40;99.90
12384;DHT22;6256;63.808;20.336;2023-03-15T10:40:54;-1.40;99.90
12384;DHT22;6256;63.808;20.336;2023-03-15T10:43:22;-1.50;99.90
12384;DHT22;6256;63.808;20.336;2023-03-15T10:46:09;-1.50;99.90
12384;DHT22;6256;63.808;20.336;2023-03-15T10:48:38;-1.50;99.90
12384;DHT22;6256;63.808;20.336;2023-03-15T10:51:18;-1.40;99.90
12384;DHT22;6256;63.808;20.336;2023-03-15T10:54:06;-1.30;99.90
12384;DHT22;6256;63.808;20.336;2023-03-15T10:56:45;-1.50;99.90
12384;DHT22;6256;63.808;20.336;2023-03-15T10:59:33;-1.60;99.90
12384;DHT22;6256;63.808;20.336;2023-03-15T11:04:42;-1.50;99.90
12384;DHT22;6256;63.808;20.336;2023-03-15T11:07:08;-1.60;99.90
12384;DHT22;6256;63.808;20.336;2023-03-15T11:09:40;-1.70;99.90
12384;DHT22;6256;63.808;20.336;2023-03-15T11:12:29;-1.50;99.90
12384;DHT22;6256;63.808;20.336;2023-03-15T11:15:01;-1.60;99.90
12384;DHT22;6256;63.808;20.336;2023-03-15T11:17:31;-1.60;99.90
12384;DHT22;6256;63.808;20.336;2023-03-15T11:20:03;-1.00;99.90
12384;DHT22;6256;63.808;20.336;2023-03-15T11:22:40;-0.50;99.90
12384;DHT22;6256;63.808;20.336;2023-03-15T11:25:13;0.10;99.90
12384;DHT22;6256;63.808;20.336;2023-03-15T11:27:40;0.10;99.90
12384;DHT22;6256;63.808;20.336;2023-03-15T11:30:15;0.40;99.90
12384;DHT22;6256;63.808;20.336;2023-03-15T11:32:42;0.60;99.90
12384;DHT22;6256;63.808;20.336;2023-03-15T11:35:21;0.80;99.90
12384;DHT22;6256;63.808;20.336;2023-03-15T11:37:56;0.50;99.90
12384;DHT22;6256;63.808;20.336;2023-03-15T11:40:39;0.50;99.90
12384;DHT22;6256;63.808;20.336;2023-03-15T11:43:23;0.50;99.90
12384;DHT22;6256;63.808;20.336;2023-03-15T11:46:04;0.10;99.90
12384;DHT22;6256;63.808;20.336;2023-03-15T11:51:01;0.30;99.90
12384;DHT22;6256;63.808;20.336;2023-03-15T11:53:36;0.40;99.90
12384;DHT22;6256;63.808;20.336;2023-03-15T11:56:23;0.20;99.90
12384;DHT22;6256;63.808;20.336;2023-03-15T12:01:35;1.00;99.90
12384;DHT22;6256;63.808;20.336;2023-03-15T12:06:46;0.90;99.50
12384;DHT22;6256;63.808;20.336;2023-03-15T12:20:27;1.00;99.40
12384;DHT22;6256;63.808;20.336;2023-03-15T12:25:56;1.40;98.90
12384;DHT22;6256;63.808;20.336;2023-03-15T12:28:36;1.10;97.90
12384;DHT22;6256;63.808;20.336;2023-03-15T12:31:09;0.70;97.00
12384;DHT22;6256;63.808;20.336;2023-03-15T12:33:55;0.60;98.30
12384;DHT22;6256;63.808;20.336;2023-03-15T12:36:29;0.20;99.30
12384;DHT22;6256;63.808;20.336;2023-03-15T12:41:42;-0.20;98.50
12384;DHT22;6256;63.808;20.336;2023-03-15T12:47:01;-0.80;99.90
12384;DHT22;6256;63.808;20.336;2023-03-15T12:49:30;-0.40;99.10
12384;DHT22;6256;63.808;20.336;2023-03-15T12:52:05;0.00;98.80
12384;DHT22;6256;63.808;20.336;2023-03-15T12:57:38;0.40;97.60
12384;DHT22;6256;63.808;20.336;2023-03-15T13:00:22;0.30;97.90
12384;DHT22;6256;63.808;20.336;2023-03-15T13:02:51;0.40;98.80
12384;DHT22;6256;63.808;20.336;2023-03-15T13:05:22;0.50;99.40
12384;DHT22;6256;63.808;20.336;2023-03-15T13:10:31;1.00;98.00
12384;DHT22;6256;63.808;20.336;2023-03-15T13:13:19;1.00;99.50
12384;DHT22;6256;63.808;20.336;2023-03-15T13:19:16;1.10;98.00
12384;DHT22;6256;63.808;20.336;2023-03-15T13:22:20;0.80;98.30
12384;DHT22;6256;63.808;20.336;2023-03-15T13:25:35;0.50;97.60
12384;DHT22;6256;63.808;20.336;2023-03-15T13:27:38;0.80;98.30
12384;DHT22;6256;63.808;20.336;2023-03-15T13:30:32;1.40;97.90
12384;DHT22;6256;63.808;20.336;2023-03-15T13:35:58;1.40;97.60
12384;DHT22;6256;63.808;20.336;2023-03-15T13:38:39;1.70;98.50
12384;DHT22;6256;63.808;20.336;2023-03-15T13:41:24;1.60;98.50
12384;DHT22;6256;63.808;20.336;2023-03-15T13:43:52;1.60;97.60
12384;DHT22;6256;63.808;20.336;2023-03-15T13:46:20;1.10;98.10
12384;DHT22;6256;63.808;20.336;2023-03-15T13:48:51;0.70;99.90
12384;DHT22;6256;63.808;20.336;2023-03-15T13:53:51;-0.30;99.90
12384;DHT22;6256;63.808;20.336;2023-03-15T13:56:20;-0.30;99.90
12384;DHT22;6256;63.808;20.336;2023-03-15T13:58:51;-0.80;99.90
12384;DHT22;6256;63.808;20.336;2023-03-15T14:01:17;-0.80;99.90
12384;DHT22;6256;63.808;20.336;2023-03-15T14:03:48;-0.90;99.90
12384;DHT22;6256;63.808;20.336;2023-03-15T14:06:22;-0.80;99.90
12384;DHT22;6256;63.808;20.336;2023-03-15T14:08:54;-1.00;99.90
12384;DHT22;6256;63.808;20.336;2023-03-15T14:13:54;-1.00;99.90
12384;DHT22;6256;63.808;20.336;2023-03-15T14:16:43;-1.10;99.90
12384;DHT22;6256;63.808;20.336;2023-03-15T14:19:17;-1.10;99.90
12384;DHT22;6256;63.808;20.336;2023-03-15T14:21:52;-1.10;99.90
12384;DHT22;6256;63.808;20.336;2023-03-15T14:26:55;-1.20;99.90
12384;DHT22;6256;63.808;20.336;2023-03-15T14:29:30;-1.30;99.90
12384;DHT22;6256;63.808;20.336;2023-03-15T14:32:06;-1.10;99.90
12384;DHT22;6256;63.808;20.336;2023-03-15T14:34:36;-1.10;99.90
12384;DHT22;6256;63.808;20.336;2023-03-15T14:37:06;-1.30;99.90
12384;DHT22;6256;63.808;20.336;2023-03-15T14:39:37;-1.20;99.90
12384;DHT22;6256;63.808;20.336;2023-03-15T14:42:05;-1.20;99.90
12384;DHT22;6256;63.808;20.336;2023-03-15T14:44:30;-1.20;99.90
12384;DHT22;6256;63.808;20.336;2023-03-15T14:46:57;-1.50;99.90
12384;DHT22;6256;63.808;20.336;2023-03-15T14:49:27;-1.50;99.90
12384;DHT22;6256;63.808;20.336;2023-03-15T14:52:00;-1.50;99.90
12384;DHT22;6256;63.808;20.336;2023-03-15T14:54:28;-1.50;99.90
12384;DHT22;6256;63.808;20.336;2023-03-15T14:56:54;-1.50;99.90
12384;DHT22;6256;63.808;20.336;2023-03-15T14:59:20;-1.40;99.90
12384;DHT22;6256;63.808;20.336;2023-03-15T15:01:50;-1.30;99.90
12384;DHT22;6256;63.808;20.336;2023-03-15T15:04:18;-1.50;99.90
12384;DHT22;6256;63.808;20.336;2023-03-15T15:06:44;-1.60;99.90
12384;DHT22;6256;63.808;20.336;2023-03-15T15:09:24;-1.70;99.90
12384;DHT22;6256;63.808;20.336;2023-03-15T15:11:51;-1.60;99.90
12384;DHT22;6256;63.808;20.336;2023-03-15T15:14:18;-1.60;99.90
12384;DHT22;6256;63.808;20.336;2023-03-15T15:16:44;-1.60;99.90
12384;DHT22;6256;63.808;20.336;2023-03-15T15:19:11;-1.60;99.90
12384;DHT22;6256;63.808;20.336;2023-03-15T15:21:37;-1.60;99.90
12384;DHT22;6256;63.808;20.336;2023-03-15T15:24:06;-1.60;99.90
12384;DHT22;6256;63.808;20.336;2023-03-15T15:26:35;-1.50;99.90
12384;DHT22;6256;63.808;20.336;2023-03-15T15:29:01;-1.50;99.90
12384;DHT22;6256;63.808;20.336;2023-03-15T15:31:28;-1.40;99.90
12384;DHT22;6256;63.808;20.336;2023-03-15T15:33:58;-1.40;99.90
12384;DHT22;6256;63.808;20.336;2023-03-15T15:36:31;-1.50;99.90
12384;DHT22;6256;63.808;20.336;2023-03-15T15:38:58;-1.50;99.90
12384;DHT22;6256;63.808;20.336;2023-03-15T15:41:29;-1.50;99.90
12384;DHT22;6256;63.808;20.336;2023-03-15T15:43:56;-1.60;99.90
12384;DHT22;6256;63.808;20.336;2023-03-15T15:46:22;-1.60;99.90
12384;DHT22;6256;63.808;20.336;2023-03-15T15:48:49;-1.60;99.90
12384;DHT22;6256;63.808;20.336;2023-03-15T15:51:29;-1.70;99.90
12384;DHT22;6256;63.808;20.336;2023-03-15T15:53:58;-1.70;99.90
12384;DHT22;6256;63.808;20.336;2023-03-15T15:56:44;-1.60;99.90
12384;DHT22;6256;63.808;20.336;2023-03-15T15:59:13;-1.60;99.90
12384;DHT22;6256;63.808;20.336;2023-03-15T16:01:39;-1.60;99.90
12384;DHT22;6256;63.808;20.336;2023-03-15T16:04:06;-1.70;99.90
12384;DHT22;6256;63.808;20.336;2023-03-15T16:06:32;-1.60;99.90
12384;DHT22;6256;63.808;20.336;2023-03-15T16:08:58;-1.70;99.90
12384;DHT22;6256;63.808;20.336;2023-03-15T16:11:24;-1.80;99.90
12384;DHT22;6256;63.808;20.336;2023-03-15T16:13:51;-1.90;99.90
12384;DHT22;6256;63.808;20.336;2023-03-15T16:16:18;-2.00;99.90
12384;DHT22;6256;63.808;20.336;2023-03-15T16:18:44;-2.00;99.90
12384;DHT22;6256;63.808;20.336;2023-03-15T16:21:30;-2.10;99.90
12384;DHT22;6256;63.808;20.336;2023-03-15T16:24:10;-2.20;99.90
12384;DHT22;6256;63.808;20.336;2023-03-15T16:26:37;-2.30;99.90
12384;DHT22;6256;63.808;20.336;2023-03-15T16:29:18;-2.40;99.90
12384;DHT22;6256;63.808;20.336;2023-03-15T16:31:44;-2.40;99.90
12384;DHT22;6256;63.808;20.336;2023-03-15T16:34:12;-2.40;99.90
12384;DHT22;6256;63.808;20.336;2023-03-15T16:36:39;-2.50;99.90
12384;DHT22;6256;63.808;20.336;2023-03-15T16:39:12;-2.50;99.90
12384;DHT22;6256;63.808;20.336;2023-03-15T16:41:38;-2.60;99.90
12384;DHT22;6256;63.808;20.336;2023-03-15T16:44:15;-2.60;99.90
12384;DHT22;6256;63.808;20.336;2023-03-15T16:46:41;-2.60;99.90
12384;DHT22;6256;63.808;20.336;2023-03-15T16:49:07;-2.60;99.90
12384;DHT22;6256;63.808;20.336;2023-03-15T16:51:33;-2.70;99.90
12384;DHT22;6256;63.808;20.336;2023-03-15T16:54:00;-2.70;99.90
12384;DHT22;6256;63.808;20.336;2023-03-15T16:56:28;-2.70;99.90
12384;DHT22;6256;63.808;20.336;2023-03-15T16:58:56;-2.80;99.90